Back to Top

Language: 

My Weather Underground Personal Weather Station Historical Data with Graphs...

Delerius Weather Station Historical Data
Daily Summary for January 26, 2017 Units:  Both    English   Metric
« Previous Day
Next Day »
Daily Weekly Monthly Yearly Custom
  High: Low: Average:
Temperature: 36.2 °F /  2.3 °C 28.8 °F /  -1.8 °C 31.6 °F /  -0.2 °C
Dew Point: 33.8 °F /  1 °C 26.2 °F /  -3.2 °C 29.1 °F /  -1.6 °C
Humidity: 94 % 87 % 90 %
Wind Speed: 11.0 mph /  17.7 km/h - 8.1 mph /  13 km/h
Wind Gust: -999.0 mph /  -1607.7 km/h - -
Wind:- - SSE
Pressure: 30.21 in /  1022.9 hPa 29.97 in /  1014.8 hPa -
Precipitation: 0.00 in /  0 mm    
Historical Graphs
 
 
Tabular Data for January 26, 2017
Time Temperature Dew Point Pressure Wind Wind Speed Wind Gust Humidity Rainfall Rate (Hourly) solar Conditions
00:01 36.2 °F /  2.3 °C 33.8 °F /  1 °C 30.21 in /  1022.9 hPa SSE 4.0 mph /  6.4 km/h -999.0 mph /  -1607.7 km/h 91 % 0.00 in /  0 mm 0 W/m2
00:06 36.2 °F /  2.3 °C 33.8 °F /  1 °C 30.21 in /  1022.9 hPa SSE 4.0 mph /  6.4 km/h -999.0 mph /  -1607.7 km/h 91 % 0.00 in /  0 mm 0 W/m2
00:11 36.2 °F /  2.3 °C 33.8 °F /  1 °C 30.21 in /  1022.9 hPa SSE 4.0 mph /  6.4 km/h -999.0 mph /  -1607.7 km/h 91 % 0.00 in /  0 mm 0 W/m2
00:16 36.2 °F /  2.3 °C 33.8 °F /  1 °C 30.21 in /  1022.9 hPa SSE 4.0 mph /  6.4 km/h -999.0 mph /  -1607.7 km/h 91 % 0.00 in /  0 mm 0 W/m2
00:21 36.2 °F /  2.3 °C 33.8 °F /  1 °C 30.21 in /  1022.9 hPa SSE 4.0 mph /  6.4 km/h -999.0 mph /  -1607.7 km/h 91 % 0.00 in /  0 mm 0 W/m2
00:26 36.2 °F /  2.3 °C 33.8 °F /  1 °C 30.20 in /  1022.6 hPa South 7.0 mph /  11.3 km/h -999.0 mph /  -1607.7 km/h 91 % 0.00 in /  0 mm 0 W/m2
00:31 36.2 °F /  2.3 °C 33.8 °F /  1 °C 30.20 in /  1022.6 hPa South 7.0 mph /  11.3 km/h -999.0 mph /  -1607.7 km/h 91 % 0.00 in /  0 mm 0 W/m2
00:36 36.2 °F /  2.3 °C 33.8 °F /  1 °C 30.20 in /  1022.6 hPa South 7.0 mph /  11.3 km/h -999.0 mph /  -1607.7 km/h 91 % 0.00 in /  0 mm 0 W/m2
00:41 36.2 °F /  2.3 °C 33.8 °F /  1 °C 30.20 in /  1022.6 hPa South 4.0 mph /  6.4 km/h -999.0 mph /  -1607.7 km/h 91 % 0.00 in /  0 mm 0 W/m2
00:46 36.2 °F /  2.3 °C 33.8 °F /  1 °C 30.20 in /  1022.6 hPa South 4.0 mph /  6.4 km/h -999.0 mph /  -1607.7 km/h 91 % 0.00 in /  0 mm 0 W/m2
00:51 36.2 °F /  2.3 °C 33.8 °F /  1 °C 30.20 in /  1022.6 hPa South 4.0 mph /  6.4 km/h -999.0 mph /  -1607.7 km/h 91 % 0.00 in /  0 mm 0 W/m2
00:56 36.2 °F /  2.3 °C 33.8 °F /  1 °C 30.19 in /  1022.2 hPa SE 6.0 mph /  9.7 km/h -999.0 mph /  -1607.7 km/h 91 % 0.00 in /  0 mm 0 W/m2
01:01 36.2 °F /  2.3 °C 33.8 °F /  1 °C 30.19 in /  1022.2 hPa SE 6.0 mph /  9.7 km/h -999.0 mph /  -1607.7 km/h 91 % 0.00 in /  0 mm 0 W/m2
01:06 36.2 °F /  2.3 °C 33.8 °F /  1 °C 30.19 in /  1022.2 hPa SE 6.0 mph /  9.7 km/h -999.0 mph /  -1607.7 km/h 91 % 0.00 in /  0 mm 0 W/m2
01:11 35.9 °F /  2.2 °C 33.8 °F /  1 °C 30.19 in /  1022.2 hPa SE 8.0 mph /  12.9 km/h -999.0 mph /  -1607.7 km/h 92 % 0.00 in /  0 mm 0 W/m2
01:16 35.9 °F /  2.2 °C 33.8 °F /  1 °C 30.19 in /  1022.2 hPa SE 8.0 mph /  12.9 km/h -999.0 mph /  -1607.7 km/h 92 % 0.00 in /  0 mm 0 W/m2
01:21 35.9 °F /  2.2 °C 33.8 °F /  1 °C 30.19 in /  1022.2 hPa SE 8.0 mph /  12.9 km/h -999.0 mph /  -1607.7 km/h 92 % 0.00 in /  0 mm 0 W/m2
01:26 35.2 °F /  1.8 °C 32.8 °F /  0.4 °C 30.19 in /  1022.2 hPa South 9.0 mph /  14.5 km/h -999.0 mph /  -1607.7 km/h 91 % 0.00 in /  0 mm 0 W/m2
01:31 35.2 °F /  1.8 °C 32.8 °F /  0.4 °C 30.19 in /  1022.2 hPa South 9.0 mph /  14.5 km/h -999.0 mph /  -1607.7 km/h 91 % 0.00 in /  0 mm 0 W/m2
01:36 35.2 °F /  1.8 °C 32.8 °F /  0.4 °C 30.19 in /  1022.2 hPa South 9.0 mph /  14.5 km/h -999.0 mph /  -1607.7 km/h 91 % 0.00 in /  0 mm 0 W/m2
01:41 34.6 °F /  1.4 °C 32.5 °F /  0.3 °C 30.18 in /  1021.9 hPa SSE 7.0 mph /  11.3 km/h -999.0 mph /  -1607.7 km/h 92 % 0.00 in /  0 mm 0 W/m2
01:46 34.6 °F /  1.4 °C 32.5 °F /  0.3 °C 30.18 in /  1021.9 hPa SSE 7.0 mph /  11.3 km/h -999.0 mph /  -1607.7 km/h 92 % 0.00 in /  0 mm 0 W/m2
01:51 34.6 °F /  1.4 °C 32.5 °F /  0.3 °C 30.18 in /  1021.9 hPa SSE 7.0 mph /  11.3 km/h -999.0 mph /  -1607.7 km/h 92 % 0.00 in /  0 mm 0 W/m2
01:56 34.5 °F /  1.4 °C 32.1 °F /  0.1 °C 30.18 in /  1021.9 hPa SSE 8.0 mph /  12.9 km/h -999.0 mph /  -1607.7 km/h 91 % 0.00 in /  0 mm 0 W/m2
02:01 34.5 °F /  1.4 °C 32.1 °F /  0.1 °C 30.18 in /  1021.9 hPa SSE 8.0 mph /  12.9 km/h -999.0 mph /  -1607.7 km/h 91 % 0.00 in /  0 mm 0 W/m2
02:06 34.5 °F /  1.4 °C 32.1 °F /  0.1 °C 30.18 in /  1021.9 hPa SSE 8.0 mph /  12.9 km/h -999.0 mph /  -1607.7 km/h 91 % 0.00 in /  0 mm 0 W/m2
02:11 34.6 °F /  1.4 °C 32.2 °F /  0.1 °C 30.17 in /  1021.6 hPa SE 8.0 mph /  12.9 km/h -999.0 mph /  -1607.7 km/h 91 % 0.00 in /  0 mm 0 W/m2
02:16 34.6 °F /  1.4 °C 32.2 °F /  0.1 °C 30.17 in /  1021.6 hPa SE 8.0 mph /  12.9 km/h -999.0 mph /  -1607.7 km/h 91 % 0.00 in /  0 mm 0 W/m2
02:21 34.6 °F /  1.4 °C 32.2 °F /  0.1 °C 30.17 in /  1021.6 hPa SE 8.0 mph /  12.9 km/h -999.0 mph /  -1607.7 km/h 91 % 0.00 in /  0 mm 0 W/m2
02:26 34.7 °F /  1.5 °C 32.3 °F /  0.2 °C 30.17 in /  1021.6 hPa SSE 8.0 mph /  12.9 km/h -999.0 mph /  -1607.7 km/h 91 % 0.00 in /  0 mm 0 W/m2
02:31 34.7 °F /  1.5 °C 32.3 °F /  0.2 °C 30.17 in /  1021.6 hPa SSE 8.0 mph /  12.9 km/h -999.0 mph /  -1607.7 km/h 91 % 0.00 in /  0 mm 0 W/m2
02:36 34.7 °F /  1.5 °C 32.3 °F /  0.2 °C 30.17 in /  1021.6 hPa SSE 8.0 mph /  12.9 km/h -999.0 mph /  -1607.7 km/h 91 % 0.00 in /  0 mm 0 W/m2
02:41 34.7 °F /  1.5 °C 32.3 °F /  0.2 °C 30.16 in /  1021.2 hPa SSE 7.0 mph /  11.3 km/h -999.0 mph /  -1607.7 km/h 91 % 0.00 in /  0 mm 0 W/m2
02:46 34.7 °F /  1.5 °C 32.3 °F /  0.2 °C 30.16 in /  1021.2 hPa SSE 7.0 mph /  11.3 km/h -999.0 mph /  -1607.7 km/h 91 % 0.00 in /  0 mm 0 W/m2
02:51 34.7 °F /  1.5 °C 32.3 °F /  0.2 °C 30.16 in /  1021.2 hPa SSE 7.0 mph /  11.3 km/h -999.0 mph /  -1607.7 km/h 91 % 0.00 in /  0 mm 0 W/m2
02:56 34.7 °F /  1.5 °C 32.3 °F /  0.2 °C 30.16 in /  1021.2 hPa SE 8.0 mph /  12.9 km/h -999.0 mph /  -1607.7 km/h 91 % 0.00 in /  0 mm 0 W/m2
03:01 34.7 °F /  1.5 °C 32.3 °F /  0.2 °C 30.16 in /  1021.2 hPa SE 8.0 mph /  12.9 km/h -999.0 mph /  -1607.7 km/h 91 % 0.00 in /  0 mm 0 W/m2
03:06 34.7 °F /  1.5 °C 32.3 °F /  0.2 °C 30.16 in /  1021.2 hPa SE 8.0 mph /  12.9 km/h -999.0 mph /  -1607.7 km/h 91 % 0.00 in /  0 mm 0 W/m2
03:11 34.4 °F /  1.3 °C 32.3 °F /  0.2 °C 30.16 in /  1021.2 hPa SE 10.0 mph /  16.1 km/h -999.0 mph /  -1607.7 km/h 92 % 0.00 in /  0 mm 0 W/m2
03:16 34.4 °F /  1.3 °C 32.3 °F /  0.2 °C 30.16 in /  1021.2 hPa SE 10.0 mph /  16.1 km/h -999.0 mph /  -1607.7 km/h 92 % 0.00 in /  0 mm 0 W/m2
03:21 34.4 °F /  1.3 °C 32.3 °F /  0.2 °C 30.16 in /  1021.2 hPa SE 10.0 mph /  16.1 km/h -999.0 mph /  -1607.7 km/h 92 % 0.00 in /  0 mm 0 W/m2
03:26 33.7 °F /  0.9 °C 31.9 °F /  -0.1 °C 30.15 in /  1020.9 hPa SE 10.0 mph /  16.1 km/h -999.0 mph /  -1607.7 km/h 93 % 0.00 in /  0 mm 0 W/m2
03:31 33.7 °F /  0.9 °C 31.9 °F /  -0.1 °C 30.15 in /  1020.9 hPa SE 10.0 mph /  16.1 km/h -999.0 mph /  -1607.7 km/h 93 % 0.00 in /  0 mm 0 W/m2
03:36 33.7 °F /  0.9 °C 31.9 °F /  -0.1 °C 30.15 in /  1020.9 hPa SE 10.0 mph /  16.1 km/h -999.0 mph /  -1607.7 km/h 93 % 0.00 in /  0 mm 0 W/m2
03:41 33.1 °F /  0.6 °C 31.3 °F /  -0.4 °C 30.15 in /  1020.9 hPa SE 9.0 mph /  14.5 km/h -999.0 mph /  -1607.7 km/h 93 % 0.00 in /  0 mm 0 W/m2
03:46 33.1 °F /  0.6 °C 31.3 °F /  -0.4 °C 30.15 in /  1020.9 hPa SE 9.0 mph /  14.5 km/h -999.0 mph /  -1607.7 km/h 93 % 0.00 in /  0 mm 0 W/m2
03:51 33.1 °F /  0.6 °C 31.3 °F /  -0.4 °C 30.15 in /  1020.9 hPa SE 9.0 mph /  14.5 km/h -999.0 mph /  -1607.7 km/h 93 % 0.00 in /  0 mm 0 W/m2
03:56 32.8 °F /  0.4 °C 31.0 °F /  -0.6 °C 30.14 in /  1020.5 hPa SE 8.0 mph /  12.9 km/h -999.0 mph /  -1607.7 km/h 93 % 0.00 in /  0 mm 0 W/m2
04:01 32.8 °F /  0.4 °C 31.0 °F /  -0.6 °C 30.14 in /  1020.5 hPa SE 8.0 mph /  12.9 km/h -999.0 mph /  -1607.7 km/h 93 % 0.00 in /  0 mm 0 W/m2
04:06 32.8 °F /  0.4 °C 31.0 °F /  -0.6 °C 30.14 in /  1020.5 hPa SE 8.0 mph /  12.9 km/h -999.0 mph /  -1607.7 km/h 93 % 0.00 in /  0 mm 0 W/m2
04:11 32.7 °F /  0.4 °C 31.2 °F /  -0.4 °C 30.14 in /  1020.5 hPa SE 7.0 mph /  11.3 km/h -999.0 mph /  -1607.7 km/h 94 % 0.00 in /  0 mm 0 W/m2
04:16 32.7 °F /  0.4 °C 31.2 °F /  -0.4 °C 30.14 in /  1020.5 hPa SE 7.0 mph /  11.3 km/h -999.0 mph /  -1607.7 km/h 94 % 0.00 in /  0 mm 0 W/m2
04:21 32.7 °F /  0.4 °C 31.2 °F /  -0.4 °C 30.14 in /  1020.5 hPa SE 7.0 mph /  11.3 km/h -999.0 mph /  -1607.7 km/h 94 % 0.00 in /  0 mm 0 W/m2
04:26 32.4 °F /  0.2 °C 30.9 °F /  -0.6 °C 30.13 in /  1020.2 hPa SSE 8.0 mph /  12.9 km/h -999.0 mph /  -1607.7 km/h 94 % 0.00 in /  0 mm 0 W/m2
04:31 32.4 °F /  0.2 °C 30.9 °F /  -0.6 °C 30.13 in /  1020.2 hPa SSE 8.0 mph /  12.9 km/h -999.0 mph /  -1607.7 km/h 94 % 0.00 in /  0 mm 0 W/m2
04:36 32.4 °F /  0.2 °C 30.9 °F /  -0.6 °C 30.13 in /  1020.2 hPa SSE 8.0 mph /  12.9 km/h -999.0 mph /  -1607.7 km/h 94 % 0.00 in /  0 mm 0 W/m2
04:41 31.8 °F /  -0.1 °C 30.3 °F /  -0.9 °C 30.13 in /  1020.2 hPa SE 9.0 mph /  14.5 km/h -999.0 mph /  -1607.7 km/h 94 % 0.00 in /  0 mm 0 W/m2
04:46 31.8 °F /  -0.1 °C 30.3 °F /  -0.9 °C 30.13 in /  1020.2 hPa SE 9.0 mph /  14.5 km/h -999.0 mph /  -1607.7 km/h 94 % 0.00 in /  0 mm 0 W/m2
04:51 31.8 °F /  -0.1 °C 30.3 °F /  -0.9 °C 30.13 in /  1020.2 hPa SE 9.0 mph /  14.5 km/h -999.0 mph /  -1607.7 km/h 94 % 0.00 in /  0 mm 0 W/m2
04:56 31.3 °F /  -0.4 °C 29.8 °F /  -1.2 °C 30.13 in /  1020.2 hPa SE 10.0 mph /  16.1 km/h -999.0 mph /  -1607.7 km/h 94 % 0.00 in /  0 mm 0 W/m2
05:01 31.3 °F /  -0.4 °C 29.8 °F /  -1.2 °C 30.13 in /  1020.2 hPa SE 10.0 mph /  16.1 km/h -999.0 mph /  -1607.7 km/h 94 % 0.00 in /  0 mm 0 W/m2
05:06 31.3 °F /  -0.4 °C 29.8 °F /  -1.2 °C 30.13 in /  1020.2 hPa SE 10.0 mph /  16.1 km/h -999.0 mph /  -1607.7 km/h 94 % 0.00 in /  0 mm 0 W/m2
05:11 31.1 °F /  -0.5 °C 29.6 °F /  -1.3 °C 30.13 in /  1020.2 hPa SSE 9.0 mph /  14.5 km/h -999.0 mph /  -1607.7 km/h 94 % 0.00 in /  0 mm 0 W/m2
05:16 31.1 °F /  -0.5 °C 29.6 °F /  -1.3 °C 30.13 in /  1020.2 hPa SSE 9.0 mph /  14.5 km/h -999.0 mph /  -1607.7 km/h 94 % 0.00 in /  0 mm 0 W/m2
05:21 31.1 °F /  -0.5 °C 29.6 °F /  -1.3 °C 30.13 in /  1020.2 hPa SSE 9.0 mph /  14.5 km/h -999.0 mph /  -1607.7 km/h 94 % 0.00 in /  0 mm 0 W/m2
05:26 31.2 °F /  -0.4 °C 29.7 °F /  -1.3 °C 30.12 in /  1019.9 hPa SE 8.0 mph /  12.9 km/h -999.0 mph /  -1607.7 km/h 94 % 0.00 in /  0 mm 0 W/m2
05:31 31.2 °F /  -0.4 °C 29.7 °F /  -1.3 °C 30.12 in /  1019.9 hPa SE 8.0 mph /  12.9 km/h -999.0 mph /  -1607.7 km/h 94 % 0.00 in /  0 mm 0 W/m2
05:36 31.2 °F /  -0.4 °C 29.7 °F /  -1.3 °C 30.12 in /  1019.9 hPa SE 8.0 mph /  12.9 km/h -999.0 mph /  -1607.7 km/h 94 % 0.00 in /  0 mm 0 W/m2
05:41 31.2 °F /  -0.4 °C 29.7 °F /  -1.3 °C 30.12 in /  1019.9 hPa SE 11.0 mph /  17.7 km/h -999.0 mph /  -1607.7 km/h 94 % 0.00 in /  0 mm 0 W/m2
05:46 31.2 °F /  -0.4 °C 29.7 °F /  -1.3 °C 30.12 in /  1019.9 hPa SE 11.0 mph /  17.7 km/h -999.0 mph /  -1607.7 km/h 94 % 0.00 in /  0 mm 0 W/m2
05:51 31.2 °F /  -0.4 °C 29.7 °F /  -1.3 °C 30.12 in /  1019.9 hPa SE 11.0 mph /  17.7 km/h -999.0 mph /  -1607.7 km/h 94 % 0.00 in /  0 mm 0 W/m2
05:56 31.1 °F /  -0.5 °C 29.6 °F /  -1.3 °C 30.12 in /  1019.9 hPa SE 10.0 mph /  16.1 km/h -999.0 mph /  -1607.7 km/h 94 % 0.00 in /  0 mm 0 W/m2
06:01 31.1 °F /  -0.5 °C 29.6 °F /  -1.3 °C 30.12 in /  1019.9 hPa SE 10.0 mph /  16.1 km/h -999.0 mph /  -1607.7 km/h 94 % 0.00 in /  0 mm 0 W/m2
06:06 31.1 °F /  -0.5 °C 29.6 °F /  -1.3 °C 30.12 in /  1019.9 hPa SE 10.0 mph /  16.1 km/h -999.0 mph /  -1607.7 km/h 94 % 0.00 in /  0 mm 0 W/m2
06:11 31.2 °F /  -0.4 °C 29.7 °F /  -1.3 °C 30.11 in /  1019.5 hPa SSE 8.0 mph /  12.9 km/h -999.0 mph /  -1607.7 km/h 94 % 0.00 in /  0 mm 0 W/m2
06:16 31.2 °F /  -0.4 °C 29.7 °F /  -1.3 °C 30.11 in /  1019.5 hPa SSE 8.0 mph /  12.9 km/h -999.0 mph /  -1607.7 km/h 94 % 0.00 in /  0 mm 0 W/m2
06:21 31.2 °F /  -0.4 °C 29.7 °F /  -1.3 °C 30.11 in /  1019.5 hPa SSE 8.0 mph /  12.9 km/h -999.0 mph /  -1607.7 km/h 94 % 0.00 in /  0 mm 0 W/m2
06:26 31.2 °F /  -0.4 °C 29.7 °F /  -1.3 °C 30.11 in /  1019.5 hPa SE 10.0 mph /  16.1 km/h -999.0 mph /  -1607.7 km/h 94 % 0.00 in /  0 mm 0 W/m2
06:31 31.2 °F /  -0.4 °C 29.7 °F /  -1.3 °C 30.11 in /  1019.5 hPa SE 10.0 mph /  16.1 km/h -999.0 mph /  -1607.7 km/h 94 % 0.00 in /  0 mm 0 W/m2
06:36 31.2 °F /  -0.4 °C 29.7 °F /  -1.3 °C 30.11 in /  1019.5 hPa SE 10.0 mph /  16.1 km/h -999.0 mph /  -1607.7 km/h 94 % 0.00 in /  0 mm 0 W/m2
06:41 30.9 °F /  -0.6 °C 29.4 °F /  -1.4 °C 30.11 in /  1019.5 hPa SE 11.0 mph /  17.7 km/h -999.0 mph /  -1607.7 km/h 94 % 0.00 in /  0 mm 0 W/m2
06:46 30.9 °F /  -0.6 °C 29.4 °F /  -1.4 °C 30.11 in /  1019.5 hPa SE 11.0 mph /  17.7 km/h -999.0 mph /  -1607.7 km/h 94 % 0.00 in /  0 mm 0 W/m2
06:51 30.9 °F /  -0.6 °C 29.4 °F /  -1.4 °C 30.11 in /  1019.5 hPa SE 11.0 mph /  17.7 km/h -999.0 mph /  -1607.7 km/h 94 % 0.00 in /  0 mm 0 W/m2
06:56 30.9 °F /  -0.6 °C 29.1 °F /  -1.6 °C 30.10 in /  1019.2 hPa SE 10.0 mph /  16.1 km/h -999.0 mph /  -1607.7 km/h 93 % 0.00 in /  0 mm 0 W/m2
07:01 30.9 °F /  -0.6 °C 29.1 °F /  -1.6 °C 30.10 in /  1019.2 hPa SE 10.0 mph /  16.1 km/h -999.0 mph /  -1607.7 km/h 93 % 0.00 in /  0 mm 0 W/m2
07:06 30.9 °F /  -0.6 °C 29.1 °F /  -1.6 °C 30.10 in /  1019.2 hPa SE 10.0 mph /  16.1 km/h -999.0 mph /  -1607.7 km/h 93 % 0.00 in /  0 mm 0 W/m2
07:11 30.9 °F /  -0.6 °C 29.1 °F /  -1.6 °C 30.10 in /  1019.2 hPa SSE 10.0 mph /  16.1 km/h -999.0 mph /  -1607.7 km/h 93 % 0.00 in /  0 mm 0 W/m2
07:16 30.9 °F /  -0.6 °C 29.1 °F /  -1.6 °C 30.10 in /  1019.2 hPa SSE 10.0 mph /  16.1 km/h -999.0 mph /  -1607.7 km/h 93 % 0.00 in /  0 mm 0 W/m2
07:21 30.9 °F /  -0.6 °C 29.1 °F /  -1.6 °C 30.10 in /  1019.2 hPa SSE 10.0 mph /  16.1 km/h -999.0 mph /  -1607.7 km/h 93 % 0.00 in /  0 mm 0 W/m2
07:26 31.1 °F /  -0.5 °C 29.3 °F /  -1.5 °C 30.10 in /  1019.2 hPa SSE 6.0 mph /  9.7 km/h -999.0 mph /  -1607.7 km/h 93 % 0.00 in /  0 mm 0 W/m2
07:31 31.1 °F /  -0.5 °C 29.3 °F /  -1.5 °C 30.10 in /  1019.2 hPa SSE 6.0 mph /  9.7 km/h -999.0 mph /  -1607.7 km/h 93 % 0.00 in /  0 mm 0 W/m2
07:36 31.1 °F /  -0.5 °C 29.3 °F /  -1.5 °C 30.10 in /  1019.2 hPa SSE 6.0 mph /  9.7 km/h -999.0 mph /  -1607.7 km/h 93 % 0.00 in /  0 mm 0 W/m2
07:41 31.2 °F /  -0.4 °C 29.1 °F /  -1.6 °C 30.09 in /  1018.8 hPa SE 10.0 mph /  16.1 km/h -999.0 mph /  -1607.7 km/h 92 % 0.00 in /  0 mm 0 W/m2
07:46 31.2 °F /  -0.4 °C 29.1 °F /  -1.6 °C 30.09 in /  1018.8 hPa SE 10.0 mph /  16.1 km/h -999.0 mph /  -1607.7 km/h 92 % 0.00 in /  0 mm 0 W/m2
07:51 31.2 °F /  -0.4 °C 29.1 °F /  -1.6 °C 30.09 in /  1018.8 hPa SE 10.0 mph /  16.1 km/h -999.0 mph /  -1607.7 km/h 92 % 0.00 in /  0 mm 0 W/m2
07:56 31.3 °F /  -0.4 °C 29.2 °F /  -1.6 °C 30.09 in /  1018.8 hPa SE 8.0 mph /  12.9 km/h -999.0 mph /  -1607.7 km/h 92 % 0.00 in /  0 mm 0 W/m2
08:01 31.3 °F /  -0.4 °C 29.2 °F /  -1.6 °C 30.09 in /  1018.8 hPa SE 8.0 mph /  12.9 km/h -999.0 mph /  -1607.7 km/h 92 % 0.00 in /  0 mm 0 W/m2
08:06 31.3 °F /  -0.4 °C 29.2 °F /  -1.6 °C 30.09 in /  1018.8 hPa SE 8.0 mph /  12.9 km/h -999.0 mph /  -1607.7 km/h 92 % 0.00 in /  0 mm 0 W/m2
08:11 31.4 °F /  -0.3 °C 29.3 °F /  -1.5 °C 30.09 in /  1018.8 hPa SE 7.0 mph /  11.3 km/h -999.0 mph /  -1607.7 km/h 92 % 0.00 in /  0 mm 0 W/m2
08:16 31.4 °F /  -0.3 °C 29.3 °F /  -1.5 °C 30.09 in /  1018.8 hPa SE 7.0 mph /  11.3 km/h -999.0 mph /  -1607.7 km/h 92 % 0.00 in /  0 mm 0 W/m2
08:21 31.4 °F /  -0.3 °C 29.3 °F /  -1.5 °C 30.09 in /  1018.8 hPa SE 7.0 mph /  11.3 km/h -999.0 mph /  -1607.7 km/h 92 % 0.00 in /  0 mm 0 W/m2
08:26 31.5 °F /  -0.3 °C 29.2 °F /  -1.6 °C 30.09 in /  1018.8 hPa SE 8.0 mph /  12.9 km/h -999.0 mph /  -1607.7 km/h 91 % 0.00 in /  0 mm 6 W/m2
08:31 31.5 °F /  -0.3 °C 29.2 °F /  -1.6 °C 30.09 in /  1018.8 hPa SE 8.0 mph /  12.9 km/h -999.0 mph /  -1607.7 km/h 91 % 0.00 in /  0 mm 6 W/m2
08:36 31.5 °F /  -0.3 °C 29.2 °F /  -1.6 °C 30.09 in /  1018.8 hPa SE 8.0 mph /  12.9 km/h -999.0 mph /  -1607.7 km/h 91 % 0.00 in /  0 mm 6 W/m2
08:41 31.5 °F /  -0.3 °C 29.2 °F /  -1.6 °C 30.09 in /  1018.8 hPa SSE 9.0 mph /  14.5 km/h -999.0 mph /  -1607.7 km/h 91 % 0.00 in /  0 mm 11 W/m2
08:46 31.5 °F /  -0.3 °C 29.2 °F /  -1.6 °C 30.09 in /  1018.8 hPa SSE 9.0 mph /  14.5 km/h -999.0 mph /  -1607.7 km/h 91 % 0.00 in /  0 mm 11 W/m2
08:51 31.5 °F /  -0.3 °C 29.2 °F /  -1.6 °C 30.09 in /  1018.8 hPa SSE 9.0 mph /  14.5 km/h -999.0 mph /  -1607.7 km/h 91 % 0.00 in /  0 mm 11 W/m2
08:56 31.6 °F /  -0.2 °C 29.0 °F /  -1.7 °C 30.09 in /  1018.8 hPa SE 9.0 mph /  14.5 km/h -999.0 mph /  -1607.7 km/h 90 % 0.00 in /  0 mm 16 W/m2
09:01 31.6 °F /  -0.2 °C 29.0 °F /  -1.7 °C 30.09 in /  1018.8 hPa SE 9.0 mph /  14.5 km/h -999.0 mph /  -1607.7 km/h 90 % 0.00 in /  0 mm 16 W/m2
09:06 31.6 °F /  -0.2 °C 29.0 °F /  -1.7 °C 30.09 in /  1018.8 hPa SE 9.0 mph /  14.5 km/h -999.0 mph /  -1607.7 km/h 90 % 0.00 in /  0 mm 16 W/m2
09:11 31.8 °F /  -0.1 °C 29.2 °F /  -1.6 °C 30.08 in /  1018.5 hPa SE 7.0 mph /  11.3 km/h -999.0 mph /  -1607.7 km/h 90 % 0.00 in /  0 mm 18 W/m2
09:16 31.8 °F /  -0.1 °C 29.2 °F /  -1.6 °C 30.08 in /  1018.5 hPa SE 7.0 mph /  11.3 km/h -999.0 mph /  -1607.7 km/h 90 % 0.00 in /  0 mm 18 W/m2
09:21 31.8 °F /  -0.1 °C 29.2 °F /  -1.6 °C 30.08 in /  1018.5 hPa SE 7.0 mph /  11.3 km/h -999.0 mph /  -1607.7 km/h 90 % 0.00 in /  0 mm 18 W/m2
09:26 31.7 °F /  -0.2 °C 28.8 °F /  -1.8 °C 30.08 in /  1018.5 hPa SSE 8.0 mph /  12.9 km/h -999.0 mph /  -1607.7 km/h 89 % 0.00 in /  0 mm 28 W/m2
09:31 31.7 °F /  -0.2 °C 28.8 °F /  -1.8 °C 30.08 in /  1018.5 hPa SSE 8.0 mph /  12.9 km/h -999.0 mph /  -1607.7 km/h 89 % 0.00 in /  0 mm 28 W/m2
09:36 31.7 °F /  -0.2 °C 28.8 °F /  -1.8 °C 30.08 in /  1018.5 hPa SSE 8.0 mph /  12.9 km/h -999.0 mph /  -1607.7 km/h 89 % 0.00 in /  0 mm 28 W/m2
09:41 31.5 °F /  -0.3 °C 28.9 °F /  -1.7 °C 30.08 in /  1018.5 hPa SE 9.0 mph /  14.5 km/h -999.0 mph /  -1607.7 km/h 90 % 0.00 in /  0 mm 30 W/m2
09:46 31.5 °F /  -0.3 °C 28.9 °F /  -1.7 °C 30.08 in /  1018.5 hPa SE 9.0 mph /  14.5 km/h -999.0 mph /  -1607.7 km/h 90 % 0.00 in /  0 mm 30 W/m2
09:51 31.5 °F /  -0.3 °C 28.9 °F /  -1.7 °C 30.08 in /  1018.5 hPa SE 9.0 mph /  14.5 km/h -999.0 mph /  -1607.7 km/h 90 % 0.00 in /  0 mm 30 W/m2
09:56 31.5 °F /  -0.3 °C 28.6 °F /  -1.9 °C 30.08 in /  1018.5 hPa SE 10.0 mph /  16.1 km/h -999.0 mph /  -1607.7 km/h 89 % 0.00 in /  0 mm 35 W/m2
10:01 31.5 °F /  -0.3 °C 28.6 °F /  -1.9 °C 30.08 in /  1018.5 hPa SE 10.0 mph /  16.1 km/h -999.0 mph /  -1607.7 km/h 89 % 0.00 in /  0 mm 35 W/m2
10:06 31.5 °F /  -0.3 °C 28.6 °F /  -1.9 °C 30.08 in /  1018.5 hPa SE 10.0 mph /  16.1 km/h -999.0 mph /  -1607.7 km/h 89 % 0.00 in /  0 mm 35 W/m2
10:11 31.4 °F /  -0.3 °C 28.5 °F /  -1.9 °C 30.07 in /  1018.2 hPa SE 10.0 mph /  16.1 km/h -999.0 mph /  -1607.7 km/h 89 % 0.00 in /  0 mm 39 W/m2
10:16 31.4 °F /  -0.3 °C 28.5 °F /  -1.9 °C 30.07 in /  1018.2 hPa SE 10.0 mph /  16.1 km/h -999.0 mph /  -1607.7 km/h 89 % 0.00 in /  0 mm 39 W/m2
10:21 31.4 °F /  -0.3 °C 28.5 °F /  -1.9 °C 30.07 in /  1018.2 hPa SE 10.0 mph /  16.1 km/h -999.0 mph /  -1607.7 km/h 89 % 0.00 in /  0 mm 39 W/m2
10:26 31.6 °F /  -0.2 °C 28.7 °F /  -1.8 °C 30.07 in /  1018.2 hPa SSE 7.0 mph /  11.3 km/h -999.0 mph /  -1607.7 km/h 89 % 0.00 in /  0 mm 43 W/m2
10:31 31.6 °F /  -0.2 °C 28.7 °F /  -1.8 °C 30.07 in /  1018.2 hPa SSE 7.0 mph /  11.3 km/h -999.0 mph /  -1607.7 km/h 89 % 0.00 in /  0 mm 43 W/m2
10:36 31.6 °F /  -0.2 °C 28.7 °F /  -1.8 °C 30.07 in /  1018.2 hPa SSE 7.0 mph /  11.3 km/h -999.0 mph /  -1607.7 km/h 89 % 0.00 in /  0 mm 43 W/m2
10:41 31.5 °F /  -0.3 °C 28.4 °F /  -2 °C 30.07 in /  1018.2 hPa SE 10.0 mph /  16.1 km/h -999.0 mph /  -1607.7 km/h 88 % 0.00 in /  0 mm 55 W/m2
10:46 31.5 °F /  -0.3 °C 28.4 °F /  -2 °C 30.07 in /  1018.2 hPa SE 10.0 mph /  16.1 km/h -999.0 mph /  -1607.7 km/h 88 % 0.00 in /  0 mm 55 W/m2
10:51 31.5 °F /  -0.3 °C 28.4 °F /  -2 °C 30.07 in /  1018.2 hPa SE 10.0 mph /  16.1 km/h -999.0 mph /  -1607.7 km/h 88 % 0.00 in /  0 mm 55 W/m2
10:56 31.4 °F /  -0.3 °C 28.3 °F /  -2.1 °C 30.07 in /  1018.2 hPa SE 7.0 mph /  11.3 km/h -999.0 mph /  -1607.7 km/h 88 % 0.00 in /  0 mm 54 W/m2
11:01 31.4 °F /  -0.3 °C 28.3 °F /  -2.1 °C 30.07 in /  1018.2 hPa SE 7.0 mph /  11.3 km/h -999.0 mph /  -1607.7 km/h 88 % 0.00 in /  0 mm 54 W/m2
11:06 31.4 °F /  -0.3 °C 28.3 °F /  -2.1 °C 30.07 in /  1018.2 hPa SE 7.0 mph /  11.3 km/h -999.0 mph /  -1607.7 km/h 88 % 0.00 in /  0 mm 54 W/m2
11:11 31.3 °F /  -0.4 °C 28.2 °F /  -2.1 °C 30.06 in /  1017.8 hPa SSE 8.0 mph /  12.9 km/h -999.0 mph /  -1607.7 km/h 88 % 0.00 in /  0 mm 58 W/m2
11:16 31.3 °F /  -0.4 °C 28.2 °F /  -2.1 °C 30.06 in /  1017.8 hPa SSE 8.0 mph /  12.9 km/h -999.0 mph /  -1607.7 km/h 88 % 0.00 in /  0 mm 58 W/m2
11:21 31.3 °F /  -0.4 °C 28.2 °F /  -2.1 °C 30.06 in /  1017.8 hPa SSE 8.0 mph /  12.9 km/h -999.0 mph /  -1607.7 km/h 88 % 0.00 in /  0 mm 58 W/m2
11:26 31.1 °F /  -0.5 °C 28.0 °F /  -2.2 °C 30.05 in /  1017.5 hPa SE 8.0 mph /  12.9 km/h -999.0 mph /  -1607.7 km/h 88 % 0.00 in /  0 mm 58 W/m2
11:31 31.1 °F /  -0.5 °C 28.0 °F /  -2.2 °C 30.05 in /  1017.5 hPa SE 8.0 mph /  12.9 km/h -999.0 mph /  -1607.7 km/h 88 % 0.00 in /  0 mm 58 W/m2
11:36 31.1 °F /  -0.5 °C 28.0 °F /  -2.2 °C 30.05 in /  1017.5 hPa SE 8.0 mph /  12.9 km/h -999.0 mph /  -1607.7 km/h 88 % 0.00 in /  0 mm 58 W/m2
11:41 31.1 °F /  -0.5 °C 27.7 °F /  -2.4 °C 30.05 in /  1017.5 hPa SE 10.0 mph /  16.1 km/h -999.0 mph /  -1607.7 km/h 87 % 0.00 in /  0 mm 49 W/m2
11:46 31.1 °F /  -0.5 °C 27.7 °F /  -2.4 °C 30.05 in /  1017.5 hPa SE 10.0 mph /  16.1 km/h -999.0 mph /  -1607.7 km/h 87 % 0.00 in /  0 mm 49 W/m2
11:51 31.1 °F /  -0.5 °C 27.7 °F /  -2.4 °C 30.05 in /  1017.5 hPa SE 10.0 mph /  16.1 km/h -999.0 mph /  -1607.7 km/h 87 % 0.00 in /  0 mm 49 W/m2
11:56 30.9 °F /  -0.6 °C 27.8 °F /  -2.3 °C 30.05 in /  1017.5 hPa SSE 9.0 mph /  14.5 km/h -999.0 mph /  -1607.7 km/h 88 % 0.00 in /  0 mm 42 W/m2
12:01 30.9 °F /  -0.6 °C 27.8 °F /  -2.3 °C 30.05 in /  1017.5 hPa SSE 9.0 mph /  14.5 km/h -999.0 mph /  -1607.7 km/h 88 % 0.00 in /  0 mm 42 W/m2
12:06 30.9 °F /  -0.6 °C 27.8 °F /  -2.3 °C 30.05 in /  1017.5 hPa SSE 9.0 mph /  14.5 km/h -999.0 mph /  -1607.7 km/h 88 % 0.00 in /  0 mm 42 W/m2
12:11 31.0 °F /  -0.6 °C 27.9 °F /  -2.3 °C 30.04 in /  1017.2 hPa SE 8.0 mph /  12.9 km/h -999.0 mph /  -1607.7 km/h 88 % 0.00 in /  0 mm 47 W/m2
12:16 31.0 °F /  -0.6 °C 27.9 °F /  -2.3 °C 30.04 in /  1017.2 hPa SE 8.0 mph /  12.9 km/h -999.0 mph /  -1607.7 km/h 88 % 0.00 in /  0 mm 47 W/m2
12:21 31.0 °F /  -0.6 °C 27.9 °F /  -2.3 °C 30.04 in /  1017.2 hPa SE 8.0 mph /  12.9 km/h -999.0 mph /  -1607.7 km/h 88 % 0.00 in /  0 mm 47 W/m2
12:26 31.1 °F /  -0.5 °C 28.0 °F /  -2.2 °C 30.04 in /  1017.2 hPa SSE 6.0 mph /  9.7 km/h -999.0 mph /  -1607.7 km/h 88 % 0.00 in /  0 mm 55 W/m2
12:31 31.1 °F /  -0.5 °C 28.0 °F /  -2.2 °C 30.04 in /  1017.2 hPa SSE 6.0 mph /  9.7 km/h -999.0 mph /  -1607.7 km/h 88 % 0.00 in /  0 mm 55 W/m2
12:36 31.1 °F /  -0.5 °C 28.0 °F /  -2.2 °C 30.04 in /  1017.2 hPa SSE 6.0 mph /  9.7 km/h -999.0 mph /  -1607.7 km/h 88 % 0.00 in /  0 mm 55 W/m2
12:41 31.2 °F /  -0.4 °C 28.1 °F /  -2.2 °C 30.03 in /  1016.8 hPa SSE 8.0 mph /  12.9 km/h -999.0 mph /  -1607.7 km/h 88 % 0.00 in /  0 mm 56 W/m2
12:46 31.2 °F /  -0.4 °C 28.1 °F /  -2.2 °C 30.03 in /  1016.8 hPa SSE 8.0 mph /  12.9 km/h -999.0 mph /  -1607.7 km/h 88 % 0.00 in /  0 mm 56 W/m2
12:51 31.2 °F /  -0.4 °C 28.1 °F /  -2.2 °C 30.03 in /  1016.8 hPa SSE 8.0 mph /  12.9 km/h -999.0 mph /  -1607.7 km/h 88 % 0.00 in /  0 mm 56 W/m2
12:56 31.1 °F /  -0.5 °C 28.0 °F /  -2.2 °C 30.03 in /  1016.8 hPa South 9.0 mph /  14.5 km/h -999.0 mph /  -1607.7 km/h 88 % 0.00 in /  0 mm 66 W/m2
13:01 31.1 °F /  -0.5 °C 28.0 °F /  -2.2 °C 30.03 in /  1016.8 hPa South 9.0 mph /  14.5 km/h -999.0 mph /  -1607.7 km/h 88 % 0.00 in /  0 mm 66 W/m2
13:06 31.1 °F /  -0.5 °C 28.0 °F /  -2.2 °C 30.03 in /  1016.8 hPa South 9.0 mph /  14.5 km/h -999.0 mph /  -1607.7 km/h 88 % 0.00 in /  0 mm 66 W/m2
13:11 31.2 °F /  -0.4 °C 27.8 °F /  -2.3 °C 30.02 in /  1016.5 hPa SSE 8.0 mph /  12.9 km/h -999.0 mph /  -1607.7 km/h 87 % 0.00 in /  0 mm 59 W/m2
13:16 31.2 °F /  -0.4 °C 27.8 °F /  -2.3 °C 30.02 in /  1016.5 hPa SSE 8.0 mph /  12.9 km/h -999.0 mph /  -1607.7 km/h 87 % 0.00 in /  0 mm 59 W/m2
13:21 31.2 °F /  -0.4 °C 27.8 °F /  -2.3 °C 30.02 in /  1016.5 hPa SSE 8.0 mph /  12.9 km/h -999.0 mph /  -1607.7 km/h 87 % 0.00 in /  0 mm 59 W/m2
13:26 31.2 °F /  -0.4 °C 28.1 °F /  -2.2 °C 30.02 in /  1016.5 hPa SE 9.0 mph /  14.5 km/h -999.0 mph /  -1607.7 km/h 88 % 0.00 in /  0 mm 46 W/m2
13:31 31.2 °F /  -0.4 °C 28.1 °F /  -2.2 °C 30.02 in /  1016.5 hPa SE 9.0 mph /  14.5 km/h -999.0 mph /  -1607.7 km/h 88 % 0.00 in /  0 mm 46 W/m2
13:36 31.2 °F /  -0.4 °C 28.1 °F /  -2.2 °C 30.02 in /  1016.5 hPa SE 9.0 mph /  14.5 km/h -999.0 mph /  -1607.7 km/h 88 % 0.00 in /  0 mm 46 W/m2
13:41 31.2 °F /  -0.4 °C 28.1 °F /  -2.2 °C 30.02 in /  1016.5 hPa SSE 7.0 mph /  11.3 km/h -999.0 mph /  -1607.7 km/h 88 % 0.00 in /  0 mm 40 W/m2
13:46 31.2 °F /  -0.4 °C 28.1 °F /  -2.2 °C 30.02 in /  1016.5 hPa SSE 7.0 mph /  11.3 km/h -999.0 mph /  -1607.7 km/h 88 % 0.00 in /  0 mm 40 W/m2
13:51 31.2 °F /  -0.4 °C 28.1 °F /  -2.2 °C 30.02 in /  1016.5 hPa SSE 7.0 mph /  11.3 km/h -999.0 mph /  -1607.7 km/h 88 % 0.00 in /  0 mm 40 W/m2
13:56 31.3 °F /  -0.4 °C 28.4 °F /  -2 °C 30.02 in /  1016.5 hPa SE 8.0 mph /  12.9 km/h -999.0 mph /  -1607.7 km/h 89 % 0.00 in /  0 mm 35 W/m2
14:01 31.3 °F /  -0.4 °C 28.4 °F /  -2 °C 30.02 in /  1016.5 hPa SE 8.0 mph /  12.9 km/h -999.0 mph /  -1607.7 km/h 89 % 0.00 in /  0 mm 35 W/m2
14:06 31.3 °F /  -0.4 °C 28.4 °F /  -2 °C 30.02 in /  1016.5 hPa SE 8.0 mph /  12.9 km/h -999.0 mph /  -1607.7 km/h 89 % 0.00 in /  0 mm 35 W/m2
14:11 31.2 °F /  -0.4 °C 28.3 °F /  -2.1 °C 30.01 in /  1016.1 hPa SE 11.0 mph /  17.7 km/h -999.0 mph /  -1607.7 km/h 89 % 0.00 in /  0 mm 35 W/m2
14:16 31.2 °F /  -0.4 °C 28.3 °F /  -2.1 °C 30.01 in /  1016.1 hPa SE 11.0 mph /  17.7 km/h -999.0 mph /  -1607.7 km/h 89 % 0.00 in /  0 mm 35 W/m2
14:21 31.2 °F /  -0.4 °C 28.3 °F /  -2.1 °C 30.01 in /  1016.1 hPa SE 11.0 mph /  17.7 km/h -999.0 mph /  -1607.7 km/h 89 % 0.00 in /  0 mm 35 W/m2
14:26 31.2 °F /  -0.4 °C 28.1 °F /  -2.2 °C 30.01 in /  1016.1 hPa SE 9.0 mph /  14.5 km/h -999.0 mph /  -1607.7 km/h 88 % 0.00 in /  0 mm 32 W/m2
14:31 31.2 °F /  -0.4 °C 28.1 °F /  -2.2 °C 30.01 in /  1016.1 hPa SE 9.0 mph /  14.5 km/h -999.0 mph /  -1607.7 km/h 88 % 0.00 in /  0 mm 32 W/m2
14:36 31.2 °F /  -0.4 °C 28.1 °F /  -2.2 °C 30.01 in /  1016.1 hPa SE 9.0 mph /  14.5 km/h -999.0 mph /  -1607.7 km/h 88 % 0.00 in /  0 mm 32 W/m2
14:41 31.2 °F /  -0.4 °C 28.1 °F /  -2.2 °C 30.01 in /  1016.1 hPa SSE 8.0 mph /  12.9 km/h -999.0 mph /  -1607.7 km/h 88 % 0.00 in /  0 mm 29 W/m2
14:46 31.2 °F /  -0.4 °C 28.1 °F /  -2.2 °C 30.01 in /  1016.1 hPa SSE 8.0 mph /  12.9 km/h -999.0 mph /  -1607.7 km/h 88 % 0.00 in /  0 mm 29 W/m2
14:51 31.2 °F /  -0.4 °C 28.1 °F /  -2.2 °C 30.01 in /  1016.1 hPa SSE 8.0 mph /  12.9 km/h -999.0 mph /  -1607.7 km/h 88 % 0.00 in /  0 mm 29 W/m2
14:56 31.3 °F /  -0.4 °C 28.2 °F /  -2.1 °C 30.01 in /  1016.1 hPa South 6.0 mph /  9.7 km/h -999.0 mph /  -1607.7 km/h 88 % 0.00 in /  0 mm 25 W/m2
15:01 31.3 °F /  -0.4 °C 28.2 °F /  -2.1 °C 30.01 in /  1016.1 hPa South 6.0 mph /  9.7 km/h -999.0 mph /  -1607.7 km/h 88 % 0.00 in /  0 mm 25 W/m2
15:06 31.3 °F /  -0.4 °C 28.2 °F /  -2.1 °C 30.01 in /  1016.1 hPa South 6.0 mph /  9.7 km/h -999.0 mph /  -1607.7 km/h 88 % 0.00 in /  0 mm 25 W/m2
15:11 31.3 °F /  -0.4 °C 28.2 °F /  -2.1 °C 30.01 in /  1016.1 hPa SSE 9.0 mph /  14.5 km/h -999.0 mph /  -1607.7 km/h 88 % 0.00 in /  0 mm 18 W/m2
15:16 31.3 °F /  -0.4 °C 28.2 °F /  -2.1 °C 30.01 in /  1016.1 hPa SSE 9.0 mph /  14.5 km/h -999.0 mph /  -1607.7 km/h 88 % 0.00 in /  0 mm 18 W/m2
15:21 31.3 °F /  -0.4 °C 28.2 °F /  -2.1 °C 30.01 in /  1016.1 hPa SSE 9.0 mph /  14.5 km/h -999.0 mph /  -1607.7 km/h 88 % 0.00 in /  0 mm 18 W/m2
15:26 31.2 °F /  -0.4 °C 28.3 °F /  -2.1 °C 30.01 in /  1016.1 hPa SE 9.0 mph /  14.5 km/h -999.0 mph /  -1607.7 km/h 89 % 0.00 in /  0 mm 14 W/m2
15:31 31.2 °F /  -0.4 °C 28.3 °F /  -2.1 °C 30.01 in /  1016.1 hPa SE 9.0 mph /  14.5 km/h -999.0 mph /  -1607.7 km/h 89 % 0.00 in /  0 mm 14 W/m2
15:36 31.2 °F /  -0.4 °C 28.3 °F /  -2.1 °C 30.01 in /  1016.1 hPa SE 9.0 mph /  14.5 km/h -999.0 mph /  -1607.7 km/h 89 % 0.00 in /  0 mm 14 W/m2
15:41 31.3 °F /  -0.4 °C 28.4 °F /  -2 °C 30.01 in /  1016.1 hPa SE 9.0 mph /  14.5 km/h -999.0 mph /  -1607.7 km/h 89 % 0.00 in /  0 mm 10 W/m2
15:46 31.3 °F /  -0.4 °C 28.4 °F /  -2 °C 30.01 in /  1016.1 hPa SE 9.0 mph /  14.5 km/h -999.0 mph /  -1607.7 km/h 89 % 0.00 in /  0 mm 10 W/m2
15:51 31.3 °F /  -0.4 °C 28.4 °F /  -2 °C 30.01 in /  1016.1 hPa SE 9.0 mph /  14.5 km/h -999.0 mph /  -1607.7 km/h 89 % 0.00 in /  0 mm 10 W/m2
15:56 31.2 °F /  -0.4 °C 28.3 °F /  -2.1 °C 30.00 in /  1015.8 hPa SE 10.0 mph /  16.1 km/h -999.0 mph /  -1607.7 km/h 89 % 0.00 in /  0 mm 7 W/m2
16:01 31.2 °F /  -0.4 °C 28.3 °F /  -2.1 °C 30.00 in /  1015.8 hPa SE 10.0 mph /  16.1 km/h -999.0 mph /  -1607.7 km/h 89 % 0.00 in /  0 mm 7 W/m2
16:06 31.2 °F /  -0.4 °C 28.3 °F /  -2.1 °C 30.00 in /  1015.8 hPa SE 10.0 mph /  16.1 km/h -999.0 mph /  -1607.7 km/h 89 % 0.00 in /  0 mm 7 W/m2
16:11 31.3 °F /  -0.4 °C 28.4 °F /  -2 °C 30.01 in /  1016.1 hPa SSE 9.0 mph /  14.5 km/h -999.0 mph /  -1607.7 km/h 89 % 0.00 in /  0 mm 4 W/m2
16:16 31.3 °F /  -0.4 °C 28.4 °F /  -2 °C 30.01 in /  1016.1 hPa SSE 9.0 mph /  14.5 km/h -999.0 mph /  -1607.7 km/h 89 % 0.00 in /  0 mm 4 W/m2
16:21 31.3 °F /  -0.4 °C 28.4 °F /  -2 °C 30.01 in /  1016.1 hPa SSE 9.0 mph /  14.5 km/h -999.0 mph /  -1607.7 km/h 89 % 0.00 in /  0 mm 4 W/m2
16:26 31.3 °F /  -0.4 °C 28.7 °F /  -1.8 °C 30.01 in /  1016.1 hPa SSE 7.0 mph /  11.3 km/h -999.0 mph /  -1607.7 km/h 90 % 0.00 in /  0 mm 0 W/m2
16:31 31.3 °F /  -0.4 °C 28.7 °F /  -1.8 °C 30.01 in /  1016.1 hPa SSE 7.0 mph /  11.3 km/h -999.0 mph /  -1607.7 km/h 90 % 0.00 in /  0 mm 0 W/m2
16:36 31.3 °F /  -0.4 °C 28.7 °F /  -1.8 °C 30.01 in /  1016.1 hPa SSE 7.0 mph /  11.3 km/h -999.0 mph /  -1607.7 km/h 90 % 0.00 in /  0 mm 0 W/m2
16:41 31.3 °F /  -0.4 °C 28.7 °F /  -1.8 °C 30.00 in /  1015.8 hPa SE 9.0 mph /  14.5 km/h -999.0 mph /  -1607.7 km/h 90 % 0.00 in /  0 mm 0 W/m2
16:46 31.3 °F /  -0.4 °C 28.7 °F /  -1.8 °C 30.00 in /  1015.8 hPa SE 9.0 mph /  14.5 km/h -999.0 mph /  -1607.7 km/h 90 % 0.00 in /  0 mm 0 W/m2
16:51 31.3 °F /  -0.4 °C 28.7 °F /  -1.8 °C 30.00 in /  1015.8 hPa SE 9.0 mph /  14.5 km/h -999.0 mph /  -1607.7 km/h 90 % 0.00 in /  0 mm 0 W/m2
16:56 31.3 °F /  -0.4 °C 28.7 °F /  -1.8 °C 30.00 in /  1015.8 hPa SSE 10.0 mph /  16.1 km/h -999.0 mph /  -1607.7 km/h 90 % 0.00 in /  0 mm 0 W/m2
17:01 31.3 °F /  -0.4 °C 28.7 °F /  -1.8 °C 30.00 in /  1015.8 hPa SSE 10.0 mph /  16.1 km/h -999.0 mph /  -1607.7 km/h 90 % 0.00 in /  0 mm 0 W/m2
17:06 31.3 °F /  -0.4 °C 28.7 °F /  -1.8 °C 30.00 in /  1015.8 hPa SSE 10.0 mph /  16.1 km/h -999.0 mph /  -1607.7 km/h 90 % 0.00 in /  0 mm 0 W/m2
17:11 31.3 °F /  -0.4 °C 28.4 °F /  -2 °C 30.00 in /  1015.8 hPa SSE 8.0 mph /  12.9 km/h -999.0 mph /  -1607.7 km/h 89 % 0.00 in /  0 mm 0 W/m2
17:16 31.3 °F /  -0.4 °C 28.4 °F /  -2 °C 30.00 in /  1015.8 hPa SSE 8.0 mph /  12.9 km/h -999.0 mph /  -1607.7 km/h 89 % 0.00 in /  0 mm 0 W/m2
17:21 31.3 °F /  -0.4 °C 28.4 °F /  -2 °C 30.00 in /  1015.8 hPa SSE 8.0 mph /  12.9 km/h -999.0 mph /  -1607.7 km/h 89 % 0.00 in /  0 mm 0 W/m2
17:26 31.3 °F /  -0.4 °C 28.7 °F /  -1.8 °C 30.00 in /  1015.8 hPa SSE 9.0 mph /  14.5 km/h -999.0 mph /  -1607.7 km/h 90 % 0.00 in /  0 mm 0 W/m2
17:31 31.3 °F /  -0.4 °C 28.7 °F /  -1.8 °C 30.00 in /  1015.8 hPa SSE 9.0 mph /  14.5 km/h -999.0 mph /  -1607.7 km/h 90 % 0.00 in /  0 mm 0 W/m2
17:36 31.3 °F /  -0.4 °C 28.7 °F /  -1.8 °C 30.00 in /  1015.8 hPa SSE 9.0 mph /  14.5 km/h -999.0 mph /  -1607.7 km/h 90 % 0.00 in /  0 mm 0 W/m2
17:41 31.2 °F /  -0.4 °C 28.3 °F /  -2.1 °C 30.00 in /  1015.8 hPa SSE 10.0 mph /  16.1 km/h -999.0 mph /  -1607.7 km/h 89 % 0.00 in /  0 mm 0 W/m2
17:46 31.2 °F /  -0.4 °C 28.3 °F /  -2.1 °C 30.00 in /  1015.8 hPa SSE 10.0 mph /  16.1 km/h -999.0 mph /  -1607.7 km/h 89 % 0.00 in /  0 mm 0 W/m2
17:51 31.2 °F /  -0.4 °C 28.3 °F /  -2.1 °C 30.00 in /  1015.8 hPa SSE 10.0 mph /  16.1 km/h -999.0 mph /  -1607.7 km/h 89 % 0.00 in /  0 mm 0 W/m2
17:56 31.2 °F /  -0.4 °C 28.3 °F /  -2.1 °C 30.00 in /  1015.8 hPa SSE 11.0 mph /  17.7 km/h -999.0 mph /  -1607.7 km/h 89 % 0.00 in /  0 mm 0 W/m2
18:01 31.2 °F /  -0.4 °C 28.3 °F /  -2.1 °C 30.00 in /  1015.8 hPa SSE 11.0 mph /  17.7 km/h -999.0 mph /  -1607.7 km/h 89 % 0.00 in /  0 mm 0 W/m2
18:06 31.2 °F /  -0.4 °C 28.3 °F /  -2.1 °C 30.00 in /  1015.8 hPa SSE 11.0 mph /  17.7 km/h -999.0 mph /  -1607.7 km/h 89 % 0.00 in /  0 mm 0 W/m2
18:11 31.1 °F /  -0.5 °C 28.2 °F /  -2.1 °C 30.00 in /  1015.8 hPa SSE 9.0 mph /  14.5 km/h -999.0 mph /  -1607.7 km/h 89 % 0.00 in /  0 mm 0 W/m2
18:16 31.1 °F /  -0.5 °C 28.2 °F /  -2.1 °C 30.00 in /  1015.8 hPa SSE 9.0 mph /  14.5 km/h -999.0 mph /  -1607.7 km/h 89 % 0.00 in /  0 mm 0 W/m2
18:21 31.1 °F /  -0.5 °C 28.2 °F /  -2.1 °C 30.00 in /  1015.8 hPa SSE 9.0 mph /  14.5 km/h -999.0 mph /  -1607.7 km/h 89 % 0.00 in /  0 mm 0 W/m2
18:26 31.0 °F /  -0.6 °C 28.1 °F /  -2.2 °C 30.00 in /  1015.8 hPa South 8.0 mph /  12.9 km/h -999.0 mph /  -1607.7 km/h 89 % 0.00 in /  0 mm 0 W/m2
18:31 31.0 °F /  -0.6 °C 28.1 °F /  -2.2 °C 30.00 in /  1015.8 hPa South 8.0 mph /  12.9 km/h -999.0 mph /  -1607.7 km/h 89 % 0.00 in /  0 mm 0 W/m2
18:36 31.0 °F /  -0.6 °C 28.1 °F /  -2.2 °C 30.00 in /  1015.8 hPa South 8.0 mph /  12.9 km/h -999.0 mph /  -1607.7 km/h 89 % 0.00 in /  0 mm 0 W/m2
18:41 31.0 °F /  -0.6 °C 28.1 °F /  -2.2 °C 30.00 in /  1015.8 hPa SSE 7.0 mph /  11.3 km/h -999.0 mph /  -1607.7 km/h 89 % 0.00 in /  0 mm 0 W/m2
18:46 31.0 °F /  -0.6 °C 28.1 °F /  -2.2 °C 30.00 in /  1015.8 hPa SSE 7.0 mph /  11.3 km/h -999.0 mph /  -1607.7 km/h 89 % 0.00 in /  0 mm 0 W/m2
18:51 31.0 °F /  -0.6 °C 28.1 °F /  -2.2 °C 30.00 in /  1015.8 hPa SSE 7.0 mph /  11.3 km/h -999.0 mph /  -1607.7 km/h 89 % 0.00 in /  0 mm 0 W/m2
18:56 31.0 °F /  -0.6 °C 28.4 °F /  -2 °C 30.00 in /  1015.8 hPa SE 8.0 mph /  12.9 km/h -999.0 mph /  -1607.7 km/h 90 % 0.00 in /  0 mm 0 W/m2
19:01 31.0 °F /  -0.6 °C 28.4 °F /  -2 °C 30.00 in /  1015.8 hPa SE 8.0 mph /  12.9 km/h -999.0 mph /  -1607.7 km/h 90 % 0.00 in /  0 mm 0 W/m2
19:06 31.0 °F /  -0.6 °C 28.4 °F /  -2 °C 30.00 in /  1015.8 hPa SE 8.0 mph /  12.9 km/h -999.0 mph /  -1607.7 km/h 90 % 0.00 in /  0 mm 0 W/m2
19:11 30.9 °F /  -0.6 °C 28.0 °F /  -2.2 °C 30.00 in /  1015.8 hPa SE 9.0 mph /  14.5 km/h -999.0 mph /  -1607.7 km/h 89 % 0.00 in /  0 mm 0 W/m2
19:16 30.9 °F /  -0.6 °C 28.0 °F /  -2.2 °C 30.00 in /  1015.8 hPa SE 9.0 mph /  14.5 km/h -999.0 mph /  -1607.7 km/h 89 % 0.00 in /  0 mm 0 W/m2
19:21 30.9 °F /  -0.6 °C 28.0 °F /  -2.2 °C 30.00 in /  1015.8 hPa SE 9.0 mph /  14.5 km/h -999.0 mph /  -1607.7 km/h 89 % 0.00 in /  0 mm 0 W/m2
19:26 30.6 °F /  -0.8 °C 27.7 °F /  -2.4 °C 30.00 in /  1015.8 hPa SE 9.0 mph /  14.5 km/h -999.0 mph /  -1607.7 km/h 89 % 0.00 in /  0 mm 0 W/m2
19:31 30.6 °F /  -0.8 °C 27.7 °F /  -2.4 °C 30.00 in /  1015.8 hPa SE 9.0 mph /  14.5 km/h -999.0 mph /  -1607.7 km/h 89 % 0.00 in /  0 mm 0 W/m2
19:36 30.6 °F /  -0.8 °C 27.7 °F /  -2.4 °C 30.00 in /  1015.8 hPa SE 9.0 mph /  14.5 km/h -999.0 mph /  -1607.7 km/h 89 % 0.00 in /  0 mm 0 W/m2
19:41 30.6 °F /  -0.8 °C 27.7 °F /  -2.4 °C 30.00 in /  1015.8 hPa SE 7.0 mph /  11.3 km/h -999.0 mph /  -1607.7 km/h 89 % 0.00 in /  0 mm 0 W/m2
19:46 30.6 °F /  -0.8 °C 27.7 °F /  -2.4 °C 30.00 in /  1015.8 hPa SE 7.0 mph /  11.3 km/h -999.0 mph /  -1607.7 km/h 89 % 0.00 in /  0 mm 0 W/m2
19:51 30.6 °F /  -0.8 °C 27.7 °F /  -2.4 °C 30.00 in /  1015.8 hPa SE 7.0 mph /  11.3 km/h -999.0 mph /  -1607.7 km/h 89 % 0.00 in /  0 mm 0 W/m2
19:56 30.7 °F /  -0.7 °C 27.8 °F /  -2.3 °C 30.00 in /  1015.8 hPa SSE 7.0 mph /  11.3 km/h -999.0 mph /  -1607.7 km/h 89 % 0.00 in /  0 mm 0 W/m2
20:01 30.7 °F /  -0.7 °C 27.8 °F /  -2.3 °C 30.00 in /  1015.8 hPa SSE 7.0 mph /  11.3 km/h -999.0 mph /  -1607.7 km/h 89 % 0.00 in /  0 mm 0 W/m2
20:06 30.7 °F /  -0.7 °C 27.8 °F /  -2.3 °C 30.00 in /  1015.8 hPa SSE 7.0 mph /  11.3 km/h -999.0 mph /  -1607.7 km/h 89 % 0.00 in /  0 mm 0 W/m2
20:11 30.6 °F /  -0.8 °C 27.5 °F /  -2.5 °C 30.00 in /  1015.8 hPa SSE 8.0 mph /  12.9 km/h -999.0 mph /  -1607.7 km/h 88 % 0.00 in /  0 mm 0 W/m2
20:16 30.6 °F /  -0.8 °C 27.5 °F /  -2.5 °C 30.00 in /  1015.8 hPa SSE 8.0 mph /  12.9 km/h -999.0 mph /  -1607.7 km/h 88 % 0.00 in /  0 mm 0 W/m2
20:21 30.6 °F /  -0.8 °C 27.5 °F /  -2.5 °C 30.00 in /  1015.8 hPa SSE 8.0 mph /  12.9 km/h -999.0 mph /  -1607.7 km/h 88 % 0.00 in /  0 mm 0 W/m2
20:26 30.3 °F /  -0.9 °C 27.4 °F /  -2.6 °C 30.00 in /  1015.8 hPa SSE 7.0 mph /  11.3 km/h -999.0 mph /  -1607.7 km/h 89 % 0.00 in /  0 mm 0 W/m2
20:31 30.3 °F /  -0.9 °C 27.4 °F /  -2.6 °C 30.00 in /  1015.8 hPa SSE 7.0 mph /  11.3 km/h -999.0 mph /  -1607.7 km/h 89 % 0.00 in /  0 mm 0 W/m2
20:36 30.3 °F /  -0.9 °C 27.4 °F /  -2.6 °C 30.00 in /  1015.8 hPa SSE 7.0 mph /  11.3 km/h -999.0 mph /  -1607.7 km/h 89 % 0.00 in /  0 mm 0 W/m2
20:41 30.2 °F /  -1 °C 27.3 °F /  -2.6 °C 30.00 in /  1015.8 hPa South 5.0 mph /  8 km/h -999.0 mph /  -1607.7 km/h 89 % 0.00 in /  0 mm 0 W/m2
20:46 30.2 °F /  -1 °C 27.3 °F /  -2.6 °C 30.00 in /  1015.8 hPa South 5.0 mph /  8 km/h -999.0 mph /  -1607.7 km/h 89 % 0.00 in /  0 mm 0 W/m2
20:51 30.2 °F /  -1 °C 27.3 °F /  -2.6 °C 30.00 in /  1015.8 hPa South 5.0 mph /  8 km/h -999.0 mph /  -1607.7 km/h 89 % 0.00 in /  0 mm 0 W/m2
20:56 30.0 °F /  -1.1 °C 26.9 °F /  -2.8 °C 29.99 in /  1015.5 hPa SSE 7.0 mph /  11.3 km/h -999.0 mph /  -1607.7 km/h 88 % 0.00 in /  0 mm 0 W/m2
21:01 30.0 °F /  -1.1 °C 26.9 °F /  -2.8 °C 29.99 in /  1015.5 hPa SSE 7.0 mph /  11.3 km/h -999.0 mph /  -1607.7 km/h 88 % 0.00 in /  0 mm 0 W/m2
21:06 30.0 °F /  -1.1 °C 26.9 °F /  -2.8 °C 29.99 in /  1015.5 hPa SSE 7.0 mph /  11.3 km/h -999.0 mph /  -1607.7 km/h 88 % 0.00 in /  0 mm 0 W/m2
21:11 29.9 °F /  -1.2 °C 27.1 °F /  -2.7 °C 29.99 in /  1015.5 hPa SSE 7.0 mph /  11.3 km/h -999.0 mph /  -1607.7 km/h 89 % 0.00 in /  0 mm 0 W/m2
21:16 29.9 °F /  -1.2 °C 27.1 °F /  -2.7 °C 29.99 in /  1015.5 hPa SSE 7.0 mph /  11.3 km/h -999.0 mph /  -1607.7 km/h 89 % 0.00 in /  0 mm 0 W/m2
21:21 29.9 °F /  -1.2 °C 27.1 °F /  -2.7 °C 29.99 in /  1015.5 hPa SSE 7.0 mph /  11.3 km/h -999.0 mph /  -1607.7 km/h 89 % 0.00 in /  0 mm 0 W/m2
21:26 29.9 °F /  -1.2 °C 27.1 °F /  -2.7 °C 29.98 in /  1015.1 hPa SSE 6.0 mph /  9.7 km/h -999.0 mph /  -1607.7 km/h 89 % 0.00 in /  0 mm 0 W/m2
21:31 29.9 °F /  -1.2 °C 27.1 °F /  -2.7 °C 29.98 in /  1015.1 hPa SSE 6.0 mph /  9.7 km/h -999.0 mph /  -1607.7 km/h 89 % 0.00 in /  0 mm 0 W/m2
21:36 29.9 °F /  -1.2 °C 27.1 °F /  -2.7 °C 29.98 in /  1015.1 hPa SSE 6.0 mph /  9.7 km/h -999.0 mph /  -1607.7 km/h 89 % 0.00 in /  0 mm 0 W/m2
21:41 29.8 °F /  -1.2 °C 27.0 °F /  -2.8 °C 29.98 in /  1015.1 hPa SE 7.0 mph /  11.3 km/h -999.0 mph /  -1607.7 km/h 89 % 0.00 in /  0 mm 0 W/m2
21:46 29.8 °F /  -1.2 °C 27.0 °F /  -2.8 °C 29.98 in /  1015.1 hPa SE 7.0 mph /  11.3 km/h -999.0 mph /  -1607.7 km/h 89 % 0.00 in /  0 mm 0 W/m2
21:51 29.8 °F /  -1.2 °C 27.0 °F /  -2.8 °C 29.98 in /  1015.1 hPa SE 7.0 mph /  11.3 km/h -999.0 mph /  -1607.7 km/h 89 % 0.00 in /  0 mm 0 W/m2
21:56 29.7 °F /  -1.3 °C 26.9 °F /  -2.8 °C 29.98 in /  1015.1 hPa SE 8.0 mph /  12.9 km/h -999.0 mph /  -1607.7 km/h 89 % 0.00 in /  0 mm 0 W/m2
22:01 29.7 °F /  -1.3 °C 26.9 °F /  -2.8 °C 29.98 in /  1015.1 hPa SE 8.0 mph /  12.9 km/h -999.0 mph /  -1607.7 km/h 89 % 0.00 in /  0 mm 0 W/m2
22:06 29.7 °F /  -1.3 °C 26.9 °F /  -2.8 °C 29.98 in /  1015.1 hPa SE 8.0 mph /  12.9 km/h -999.0 mph /  -1607.7 km/h 89 % 0.00 in /  0 mm 0 W/m2
22:11 29.5 °F /  -1.4 °C 26.9 °F /  -2.8 °C 29.98 in /  1015.1 hPa SE 7.0 mph /  11.3 km/h -999.0 mph /  -1607.7 km/h 90 % 0.00 in /  0 mm 0 W/m2
22:16 29.5 °F /  -1.4 °C 26.9 °F /  -2.8 °C 29.98 in /  1015.1 hPa SE 7.0 mph /  11.3 km/h -999.0 mph /  -1607.7 km/h 90 % 0.00 in /  0 mm 0 W/m2
22:21 29.5 °F /  -1.4 °C 26.9 °F /  -2.8 °C 29.98 in /  1015.1 hPa SE 7.0 mph /  11.3 km/h -999.0 mph /  -1607.7 km/h 90 % 0.00 in /  0 mm 0 W/m2
22:26 29.5 °F /  -1.4 °C 26.9 °F /  -2.8 °C 29.98 in /  1015.1 hPa SE 5.0 mph /  8 km/h -999.0 mph /  -1607.7 km/h 90 % 0.00 in /  0 mm 0 W/m2
22:31 29.5 °F /  -1.4 °C 26.9 °F /  -2.8 °C 29.98 in /  1015.1 hPa SE 5.0 mph /  8 km/h -999.0 mph /  -1607.7 km/h 90 % 0.00 in /  0 mm 0 W/m2
22:36 29.5 °F /  -1.4 °C 26.9 °F /  -2.8 °C 29.98 in /  1015.1 hPa SE 5.0 mph /  8 km/h -999.0 mph /  -1607.7 km/h 90 % 0.00 in /  0 mm 0 W/m2
22:41 29.4 °F /  -1.4 °C 26.8 °F /  -2.9 °C 29.98 in /  1015.1 hPa SE 7.0 mph /  11.3 km/h -999.0 mph /  -1607.7 km/h 90 % 0.00 in /  0 mm 0 W/m2
22:46 29.4 °F /  -1.4 °C 26.8 °F /  -2.9 °C 29.98 in /  1015.1 hPa SE 7.0 mph /  11.3 km/h -999.0 mph /  -1607.7 km/h 90 % 0.00 in /  0 mm 0 W/m2
22:51 29.4 °F /  -1.4 °C 26.8 °F /  -2.9 °C 29.98 in /  1015.1 hPa SE 7.0 mph /  11.3 km/h -999.0 mph /  -1607.7 km/h 90 % 0.00 in /  0 mm 0 W/m2
22:56 29.2 °F /  -1.6 °C 26.6 °F /  -3 °C 29.98 in /  1015.1 hPa SE 8.0 mph /  12.9 km/h -999.0 mph /  -1607.7 km/h 90 % 0.00 in /  0 mm 0 W/m2
23:01 29.2 °F /  -1.6 °C 26.6 °F /  -3 °C 29.98 in /  1015.1 hPa SE 8.0 mph /  12.9 km/h -999.0 mph /  -1607.7 km/h 90 % 0.00 in /  0 mm 0 W/m2
23:06 29.2 °F /  -1.6 °C 26.6 °F /  -3 °C 29.98 in /  1015.1 hPa SE 8.0 mph /  12.9 km/h -999.0 mph /  -1607.7 km/h 90 % 0.00 in /  0 mm 0 W/m2
23:11 28.9 °F /  -1.7 °C 26.3 °F /  -3.2 °C 29.97 in /  1014.8 hPa SSE 8.0 mph /  12.9 km/h -999.0 mph /  -1607.7 km/h 90 % 0.00 in /  0 mm 0 W/m2
23:16 28.9 °F /  -1.7 °C 26.3 °F /  -3.2 °C 29.97 in /  1014.8 hPa SSE 8.0 mph /  12.9 km/h -999.0 mph /  -1607.7 km/h 90 % 0.00 in /  0 mm 0 W/m2
23:21 28.9 °F /  -1.7 °C 26.3 °F /  -3.2 °C 29.97 in /  1014.8 hPa SSE 8.0 mph /  12.9 km/h -999.0 mph /  -1607.7 km/h 90 % 0.00 in /  0 mm 0 W/m2
23:26 28.8 °F /  -1.8 °C 26.2 °F /  -3.2 °C 29.97 in /  1014.8 hPa SE 6.0 mph /  9.7 km/h -999.0 mph /  -1607.7 km/h 90 % 0.00 in /  0 mm 0 W/m2
23:31 28.8 °F /  -1.8 °C 26.2 °F /  -3.2 °C 29.97 in /  1014.8 hPa SE 6.0 mph /  9.7 km/h -999.0 mph /  -1607.7 km/h 90 % 0.00 in /  0 mm 0 W/m2
23:36 28.8 °F /  -1.8 °C 26.2 °F /  -3.2 °C 29.97 in /  1014.8 hPa SE 6.0 mph /  9.7 km/h -999.0 mph /  -1607.7 km/h 90 % 0.00 in /  0 mm 0 W/m2
23:41 28.8 °F /  -1.8 °C 26.5 °F /  -3.1 °C 29.97 in /  1014.8 hPa SSE 7.0 mph /  11.3 km/h -999.0 mph /  -1607.7 km/h 91 % 0.00 in /  0 mm 0 W/m2
23:46 28.8 °F /  -1.8 °C 26.5 °F /  -3.1 °C 29.97 in /  1014.8 hPa SSE 7.0 mph /  11.3 km/h -999.0 mph /  -1607.7 km/h 91 % 0.00 in /  0 mm 0 W/m2
23:51 28.8 °F /  -1.8 °C 26.5 °F /  -3.1 °C 29.97 in /  1014.8 hPa SSE 7.0 mph /  11.3 km/h -999.0 mph /  -1607.7 km/h 91 % 0.00 in /  0 mm 0 W/m2
23:56 28.8 °F /  -1.8 °C 26.5 °F /  -3.1 °C 29.97 in /  1014.8 hPa SSE 7.0 mph /  11.3 km/h -999.0 mph /  -1607.7 km/h 91 % 0.00 in /  0 mm 0 W/m2
Delerius-Weather
Compliments of Weather Underground - 2.25 mb

Data updates at regular intervals.